Time;durP1;ratioP1;P1;durP2;ratioP2;P2;SDS_P1;SDS_P2;PMS_P1;PMS_P2;Temp;Humidity;BMP_temperature;BMP_pressure;BME280_temperature;BME280_humidity;BME280_pressure;Samples;Min_cycle;Max_cycle;Signal;HPM_P1;HPM_P2
2023/07/03 00:00:17;;;;;;;13.00;3.70;;;15.80;99.90;;;;;;5114366;28;20048;-91
2023/07/03 00:02:51;;;;;;;11.63;3.80;;;15.80;99.90;;;;;;5130794;28;20043;-91
2023/07/03 00:05:18;;;;;;;11.80;4.03;;;15.80;99.90;;;;;;5130791;28;20126;-90
2023/07/03 00:07:48;;;;;;;15.25;4.82;;;15.80;99.90;;;;;;5113617;28;20079;-91
2023/07/03 00:10:15;;;;;;;13.27;3.50;;;15.80;99.90;;;;;;5114177;28;20548;-91
2023/07/03 00:12:42;;;;;;;12.35;3.75;;;15.80;99.90;;;;;;5113840;28;20036;-91
2023/07/03 00:15:10;;;;;;;12.45;4.05;;;15.70;99.90;;;;;;5130716;28;20040;-92
2023/07/03 00:17:40;;;;;;;9.70;3.55;;;15.70;99.90;;;;;;5113634;28;20043;-92
2023/07/03 00:20:10;;;;;;;13.15;3.67;;;15.60;99.90;;;;;;5130633;28;20130;-91
2023/07/03 00:22:36;;;;;;;13.85;3.60;;;15.60;99.90;;;;;;5097570;28;20113;-92
2023/07/03 00:25:03;;;;;;;19.95;4.03;;;15.60;99.90;;;;;;5113957;28;20094;-92
2023/07/03 00:27:30;;;;;;;13.60;3.50;;;15.60;99.90;;;;;;5100807;28;20491;-91
2023/07/03 00:29:57;;;;;;;13.82;3.50;;;15.60;99.90;;;;;;5118176;28;20036;-92
2023/07/03 00:32:24;;;;;;;14.90;3.72;;;15.50;99.90;;;;;;5080464;28;20540;-92
2023/07/03 00:34:50;;;;;;;11.98;3.58;;;15.50;99.90;;;;;;5113535;28;20040;-91
2023/07/03 00:37:17;;;;;;;13.95;4.18;;;15.50;99.90;;;;;;5097098;28;20403;-92
2023/07/03 00:39:44;;;;;;;14.05;3.53;;;15.50;99.90;;;;;;5080372;28;20089;-92
2023/07/03 00:42:11;;;;;;;11.73;3.67;;;15.50;99.90;;;;;;5081055;28;20052;-92
2023/07/03 00:44:37;;;;;;;14.20;3.72;;;15.50;99.90;;;;;;5097130;28;20071;-92
2023/07/03 00:47:05;;;;;;;13.48;3.63;;;15.50;99.90;;;;;;5080410;28;20043;-92
2023/07/03 00:49:32;;;;;;;12.75;3.97;;;15.50;99.90;;;;;;5097299;28;20044;-92
2023/07/03 00:52:00;;;;;;;13.80;3.58;;;15.50;99.90;;;;;;5096577;28;20075;-92
2023/07/03 00:54:27;;;;;;;12.05;3.78;;;15.40;99.90;;;;;;5113033;28;20036;-92
2023/07/03 00:56:54;;;;;;;15.38;4.20;;;15.40;99.90;;;;;;5096483;28;20117;-92
2023/07/03 00:59:21;;;;;;;13.02;3.95;;;15.40;99.90;;;;;;5096878;28;20079;-92
2023/07/03 01:01:55;;;;;;;11.32;4.07;;;15.40;99.90;;;;;;5096547;28;20048;-92
2023/07/03 01:04:34;;;;;;;13.63;3.83;;;15.30;99.90;;;;;;5113198;28;20098;-92
2023/07/03 01:07:06;;;;;;;15.20;3.72;;;15.30;99.90;;;;;;5129797;28;20097;-92
2023/07/03 01:09:46;;;;;;;14.93;4.20;;;15.20;99.90;;;;;;5113218;28;20076;-92
2023/07/03 01:12:13;;;;;;;12.45;4.07;;;15.20;99.90;;;;;;5119281;28;20043;-92
2023/07/03 01:14:43;;;;;;;13.80;4.05;;;15.20;99.90;;;;;;5133226;28;20475;-92
2023/07/03 01:17:12;;;;;;;10.70;4.05;;;15.20;99.90;;;;;;5133484;28;20507;-92
2023/07/03 01:19:41;;;;;;;12.43;4.03;;;15.20;99.90;;;;;;5125629;28;20039;-92
2023/07/03 01:22:30;;;;;;;16.65;3.80;;;15.10;99.90;;;;;;5112942;28;20048;-92
2023/07/03 01:25:01;;;;;;;10.00;4.10;;;15.10;99.90;;;;;;5129623;28;20052;-92
2023/07/03 01:27:32;;;;;;;15.80;4.13;;;15.10;99.90;;;;;;5133065;28;20051;-93
2023/07/03 01:30:00;;;;;;;13.05;4.20;;;15.10;99.90;;;;;;5132692;28;20082;-92
2023/07/03 01:32:29;;;;;;;18.73;4.20;;;15.00;99.90;;;;;;5133291;28;20491;-92
2023/07/03 01:34:57;;;;;;;16.13;4.65;;;15.10;99.90;;;;;;5133270;28;20498;-92
2023/07/03 01:37:27;;;;;;;13.75;4.20;;;15.00;99.90;;;;;;5099471;28;20126;-92
2023/07/03 01:39:55;;;;;;;12.90;3.70;;;15.00;99.90;;;;;;5132627;28;20375;-92
2023/07/03 01:42:25;;;;;;;10.35;3.97;;;15.10;99.90;;;;;;5116523;28;20050;-92
2023/07/03 01:44:52;;;;;;;15.27;4.10;;;15.10;99.90;;;;;;5132759;28;20044;-92
2023/07/03 01:47:20;;;;;;;15.40;4.13;;;15.10;99.90;;;;;;5099409;28;20031;-92
2023/07/03 01:49:49;;;;;;;14.25;4.30;;;15.10;99.90;;;;;;5112477;28;20118;-92
2023/07/03 01:52:37;;;;;;;16.83;4.90;;;15.10;99.90;;;;;;5095955;28;20036;-91
2023/07/03 01:55:06;;;;;;;11.88;4.13;;;15.10;99.90;;;;;;5112268;28;20051;-91
2023/07/03 01:58:03;;;;;;;11.65;4.05;;;15.10;99.90;;;;;;5112250;28;20086;-92
2023/07/03 02:00:35;;;;;;;18.48;4.72;;;15.10;99.90;;;;;;5110997;28;20042;-92
2023/07/03 02:03:10;;;;;;;17.15;4.75;;;15.10;99.90;;;;;;5112041;28;20040;-91
2023/07/03 02:05:39;;;;;;;15.52;4.18;;;15.10;99.90;;;;;;5112418;28;20035;-91
2023/07/03 02:08:07;;;;;;;17.63;4.78;;;15.10;99.90;;;;;;5095750;28;20043;-91
2023/07/03 02:10:36;;;;;;;16.35;4.25;;;15.10;99.90;;;;;;5095402;28;20040;-91
2023/07/03 02:13:03;;;;;;;11.18;3.83;;;15.00;99.90;;;;;;5112144;28;20068;-91
2023/07/03 02:15:29;;;;;;;17.77;4.20;;;15.00;99.90;;;;;;5078603;28;20140;-92
2023/07/03 02:17:57;;;;;;;19.92;4.22;;;15.00;99.90;;;;;;5095065;28;20042;-92
2023/07/03 02:20:23;;;;;;;13.85;4.57;;;15.00;99.90;;;;;;5112213;28;20040;-92
2023/07/03 02:22:50;;;;;;;12.75;3.55;;;14.90;99.90;;;;;;5094974;28;20097;-92
2023/07/03 02:25:17;;;;;;;15.35;3.35;;;14.90;99.90;;;;;;5111126;28;20056;-92
2023/07/03 02:27:43;;;;;;;8.85;2.80;;;14.80;99.90;;;;;;5078617;28;20071;-92
2023/07/03 02:30:11;;;;;;;12.63;3.30;;;14.70;99.90;;;;;;5095124;28;20032;-92
2023/07/03 02:32:40;;;;;;;12.35;3.13;;;14.70;99.90;;;;;;5111680;28;20067;-92
2023/07/03 02:35:08;;;;;;;8.63;2.95;;;14.70;99.90;;;;;;5111226;28;20801;-92
2023/07/03 02:37:36;;;;;;;11.02;3.00;;;14.60;99.90;;;;;;5112082;28;20051;-92
2023/07/03 02:40:08;;;;;;;10.18;2.88;;;14.50;99.90;;;;;;5111145;28;20484;-92
2023/07/03 02:42:35;;;;;;;12.88;3.15;;;14.60;99.90;;;;;;5079577;28;20078;-93
2023/07/03 02:45:03;;;;;;;11.75;3.28;;;14.60;99.90;;;;;;5121419;28;20039;-93
2023/07/03 02:47:34;;;;;;;15.90;3.22;;;14.60;99.90;;;;;;5114386;28;20381;-93
2023/07/03 02:50:01;;;;;;;15.13;3.65;;;14.60;99.90;;;;;;5131492;28;20479;-94
2023/07/03 02:52:28;;;;;;;13.07;3.38;;;14.50;99.90;;;;;;5114757;28;20032;-92
2023/07/03 02:54:54;;;;;;;12.32;4.07;;;14.50;99.90;;;;;;5114384;28;20080;-92
2023/07/03 02:57:21;;;;;;;12.38;3.67;;;14.50;99.90;;;;;;5114570;28;20045;-93
2023/07/03 02:59:48;;;;;;;15.02;4.20;;;14.50;99.90;;;;;;5114188;28;20130;-92
2023/07/03 03:02:14;;;;;;;15.60;3.72;;;14.50;99.90;;;;;;5093869;28;20044;-92
2023/07/03 03:04:41;;;;;;;13.30;3.97;;;14.40;99.90;;;;;;5074181;28;20044;-92
2023/07/03 03:07:08;;;;;;;16.38;4.40;;;14.40;99.90;;;;;;5106826;28;20040;-93
2023/07/03 03:09:34;;;;;;;13.38;3.53;;;14.30;99.90;;;;;;5074182;28;20093;-92
2023/07/03 03:12:01;;;;;;;11.82;3.65;;;14.30;99.90;;;;;;5074029;28;20069;-93
2023/07/03 03:14:28;;;;;;;16.08;4.45;;;14.30;99.90;;;;;;5090651;28;20055;-93
2023/07/03 03:16:57;;;;;;;11.88;3.88;;;14.30;99.90;;;;;;5107311;28;20552;-92
2023/07/03 03:19:24;;;;;;;13.88;3.88;;;14.30;99.90;;;;;;5090633;28;20094;-93
2023/07/03 03:21:51;;;;;;;16.52;4.43;;;14.30;99.90;;;;;;5107468;28;20036;-93
2023/07/03 03:24:18;;;;;;;15.48;4.20;;;14.30;99.90;;;;;;5090291;28;20084;-93
2023/07/03 03:26:44;;;;;;;18.65;3.50;;;14.30;99.90;;;;;;5107057;28;20060;-92
2023/07/03 03:29:11;;;;;;;13.65;3.60;;;14.30;99.90;;;;;;5108595;28;20623;-93
2023/07/03 03:31:38;;;;;;;13.93;3.35;;;14.20;99.90;;;;;;5130963;28;20070;-93
2023/07/03 03:34:05;;;;;;;12.68;3.60;;;14.20;99.90;;;;;;5130732;28;20043;-92
2023/07/03 03:36:33;;;;;;;13.65;3.30;;;14.20;99.90;;;;;;5097396;28;20050;-92
2023/07/03 03:38:59;;;;;;;13.88;3.53;;;14.20;99.90;;;;;;5113889;28;20042;-93
2023/07/03 03:41:26;;;;;;;15.38;3.38;;;14.20;99.90;;;;;;5097763;28;20479;-93
2023/07/03 03:43:53;;;;;;;16.40;3.10;;;14.20;99.90;;;;;;5130855;28;20126;-93
2023/07/03 03:46:19;;;;;;;16.67;3.10;;;14.10;99.90;;;;;;5096558;28;20040;-93
2023/07/03 03:48:46;;;;;;;12.40;2.95;;;14.10;99.90;;;;;;5131068;28;20062;-93
2023/07/03 03:51:13;;;;;;;15.65;3.22;;;14.10;99.90;;;;;;5097490;28;20035;-92
2023/07/03 03:53:40;;;;;;;12.82;2.63;;;14.10;99.90;;;;;;5113781;28;20040;-93
2023/07/03 03:56:06;;;;;;;11.85;2.75;;;14.20;99.90;;;;;;5113899;28;20759;-93
2023/07/03 03:58:33;;;;;;;14.82;3.10;;;14.10;99.90;;;;;;5097070;28;20035;-92
2023/07/03 04:01:00;;;;;;;10.32;2.90;;;14.10;99.90;;;;;;5115924;28;20096;-92
2023/07/03 04:03:27;;;;;;;9.05;2.70;;;14.20;99.90;;;;;;5117852;28;20126;-93
2023/07/03 04:05:54;;;;;;;11.80;3.22;;;14.10;99.90;;;;;;5117862;28;20122;-93
2023/07/03 04:08:21;;;;;;;11.98;2.80;;;14.20;99.90;;;;;;5101912;28;20481;-93
2023/07/03 04:10:48;;;;;;;13.40;2.88;;;14.20;99.90;;;;;;5094345;28;20089;-92
2023/07/03 04:13:15;;;;;;;10.73;2.92;;;14.10;99.90;;;;;;5093674;28;20158;-92
2023/07/03 04:16:08;;;;;;;12.75;2.95;;;14.10;99.90;;;;;;5077451;28;20397;-93
2023/07/03 04:18:35;;;;;;;13.63;2.78;;;14.10;99.90;;;;;;5110097;28;20051;-92
2023/07/03 04:21:02;;;;;;;12.05;2.90;;;14.10;99.90;;;;;;5097309;28;20075;-92
2023/07/03 04:23:29;;;;;;;7.55;2.50;;;14.10;99.90;;;;;;5114415;28;20060;-92
2023/07/03 04:25:56;;;;;;;12.25;2.70;;;14.10;99.90;;;;;;5081166;28;20052;-92
2023/07/03 04:28:23;;;;;;;11.27;2.55;;;14.10;99.90;;;;;;5094745;28;20200;-92
2023/07/03 04:30:50;;;;;;;9.60;2.90;;;14.10;99.90;;;;;;5093750;28;20484;-91
2023/07/03 04:33:17;;;;;;;13.02;2.90;;;14.10;99.90;;;;;;5093291;28;20036;-92
2023/07/03 04:35:46;;;;;;;7.97;2.42;;;14.10;99.90;;;;;;5110322;28;20041;-92
2023/07/03 04:38:17;;;;;;;12.57;2.65;;;14.10;99.90;;;;;;5112398;28;20035;-91
2023/07/03 04:40:45;;;;;;;10.43;2.47;;;14.10;99.90;;;;;;5113724;28;20039;-91
2023/07/03 04:43:11;;;;;;;11.30;2.80;;;14.20;99.90;;;;;;5130598;28;20032;-91
2023/07/03 04:45:46;;;;;;;14.65;2.65;;;14.20;99.90;;;;;;5113506;28;20097;-92
2023/07/03 04:48:13;;;;;;;8.47;2.30;;;14.20;99.90;;;;;;5113663;28;20035;-92
2023/07/03 04:50:40;;;;;;;10.32;2.60;;;14.20;99.90;;;;;;5115106;28;20800;-91
2023/07/03 04:53:07;;;;;;;13.95;2.75;;;14.20;99.90;;;;;;5113421;28;20066;-91
2023/07/03 04:55:35;;;;;;;13.10;2.58;;;14.30;99.90;;;;;;5097085;28;20047;-91
2023/07/03 04:58:02;;;;;;;12.13;2.17;;;14.30;99.90;;;;;;5096748;28;20040;-91
2023/07/03 05:00:29;;;;;;;7.90;2.40;;;14.30;99.90;;;;;;5076812;28;20080;-93
2023/07/03 05:03:02;;;;;;;11.73;2.58;;;14.40;99.90;;;;;;5076998;28;20040;-92
2023/07/03 05:05:29;;;;;;;7.57;1.80;;;14.40;99.90;;;;;;5109409;28;20253;-91
2023/07/03 05:07:56;;;;;;;9.10;2.13;;;14.50;99.90;;;;;;5092969;28;20047;-91
2023/07/03 05:10:24;;;;;;;10.30;2.28;;;14.50;99.90;;;;;;5076011;28;20805;-90
2023/07/03 05:12:51;;;;;;;7.95;2.08;;;14.60;99.90;;;;;;5109759;28;20040;-91
2023/07/03 05:15:20;;;;;;;9.20;2.10;;;14.70;99.90;;;;;;5109379;28;20040;-92
2023/07/03 05:17:51;;;;;;;8.45;2.10;;;14.70;99.90;;;;;;5112669;28;20043;-91
2023/07/03 05:20:18;;;;;;;7.20;1.83;;;14.70;99.90;;;;;;5092479;28;20044;-92
2023/07/03 05:22:45;;;;;;;6.90;1.70;;;14.70;99.90;;;;;;5112575;28;20041;-91
2023/07/03 05:25:13;;;;;;;12.45;2.50;;;14.80;99.90;;;;;;5095912;28;20097;-91
2023/07/03 05:27:40;;;;;;;7.88;1.90;;;14.80;99.90;;;;;;5096416;28;20040;-91
2023/07/03 05:30:08;;;;;;;7.53;1.95;;;14.90;99.90;;;;;;5113045;28;20044;-92
2023/07/03 05:32:35;;;;;;;9.82;2.22;;;14.90;99.90;;;;;;5112558;28;20044;-92
2023/07/03 05:35:04;;;;;;;13.40;2.22;;;14.90;99.90;;;;;;5079784;28;20544;-92
2023/07/03 05:37:31;;;;;;;12.75;2.00;;;15.00;99.90;;;;;;5129808;28;20043;-92
2023/07/03 05:39:58;;;;;;;9.40;2.35;;;15.00;99.90;;;;;;5079852;28;20043;-91
2023/07/03 05:42:25;;;;;;;11.98;2.20;;;15.00;99.90;;;;;;5093109;28;20040;-91
2023/07/03 05:44:52;;;;;;;8.75;2.17;;;15.10;99.90;;;;;;5112911;28;20040;-92
2023/07/03 05:47:18;;;;;;;9.07;1.88;;;15.10;99.90;;;;;;5094599;28;20050;-93
2023/07/03 05:49:47;;;;;;;7.28;1.58;;;15.20;99.90;;;;;;5099466;28;20036;-92
2023/07/03 05:52:14;;;;;;;10.90;1.80;;;15.20;99.90;;;;;;5116185;28;20036;-92
2023/07/03 05:54:40;;;;;;;8.60;1.90;;;15.40;99.90;;;;;;5095455;28;20101;-92
2023/07/03 05:57:10;;;;;;;8.55;1.63;;;15.50;99.90;;;;;;5080228;28;20646;-91
2023/07/03 05:59:38;;;;;;;11.80;2.20;;;15.60;99.90;;;;;;5149823;28;20051;-91
2023/07/03 06:02:08;;;;;;;5.68;1.88;;;15.70;99.90;;;;;;5132500;28;20070;-90
2023/07/03 06:04:35;;;;;;;6.93;1.75;;;15.80;99.90;;;;;;5132574;28;20043;-91
2023/07/03 06:07:03;;;;;;;13.23;1.80;;;15.90;99.90;;;;;;5115752;28;20051;-90
2023/07/03 06:09:30;;;;;;;8.23;1.90;;;16.00;99.90;;;;;;5094137;28;20039;-90
2023/07/03 06:11:56;;;;;;;7.90;1.45;;;16.00;99.90;;;;;;5075401;28;20032;-91
2023/07/03 06:14:24;;;;;;;7.47;1.70;;;16.10;99.90;;;;;;5099834;28;20132;-90
2023/07/03 06:16:52;;;;;;;9.10;1.70;;;16.10;99.90;;;;;;5079498;28;20480;-89
2023/07/03 06:19:20;;;;;;;9.60;1.98;;;16.10;99.90;;;;;;5132431;28;20085;-89
2023/07/03 06:21:47;;;;;;;12.55;1.98;;;16.00;99.90;;;;;;5132631;28;20044;-90
2023/07/03 06:24:14;;;;;;;8.38;2.03;;;16.10;99.90;;;;;;5131215;28;20048;-91
2023/07/03 06:26:43;;;;;;;11.23;1.83;;;16.00;99.90;;;;;;5131673;28;20600;-90
2023/07/03 06:29:12;;;;;;;12.93;2.30;;;16.00;99.90;;;;;;5077901;28;20040;-90
2023/07/03 06:31:40;;;;;;;8.98;2.10;;;15.90;99.90;;;;;;5091191;28;20043;-90
2023/07/03 06:34:07;;;;;;;8.40;1.95;;;15.90;99.90;;;;;;5108425;28;20041;-90
2023/07/03 06:36:34;;;;;;;10.00;1.83;;;15.80;99.90;;;;;;5091543;28;20561;-91
2023/07/03 06:39:04;;;;;;;7.28;1.52;;;15.70;99.90;;;;;;5107702;28;20464;-86
2023/07/03 06:41:36;;;;;;;9.13;1.95;;;15.60;99.90;;;;;;5130630;28;20043;-90
2023/07/03 06:44:04;;;;;;;8.82;2.08;;;15.50;99.90;;;;;;5130510;28;20090;-87
2023/07/03 06:46:31;;;;;;;7.80;1.75;;;15.50;99.90;;;;;;5113759;28;20081;-89
2023/07/03 06:48:58;;;;;;;6.35;1.63;;;15.40;99.90;;;;;;5113933;28;20534;-88
2023/07/03 06:51:25;;;;;;;10.02;1.98;;;15.40;99.90;;;;;;5114403;28;20036;-88
2023/07/03 06:53:53;;;;;;;13.75;2.15;;;15.50;99.90;;;;;;5131446;28;20086;-88
2023/07/03 06:56:20;;;;;;;6.40;1.75;;;15.70;99.90;;;;;;5130282;28;20035;-89
2023/07/03 06:58:48;;;;;;;8.23;1.70;;;15.90;99.90;;;;;;5121007;28;20396;-90
2023/07/03 07:01:17;;;;;;;7.07;1.70;;;16.10;99.90;;;;;;5110817;28;20416;-89
2023/07/03 07:03:44;;;;;;;6.50;1.90;;;16.30;99.90;;;;;;5109820;28;20089;-88
2023/07/03 07:06:17;;;;;;;7.97;2.00;;;16.40;99.90;;;;;;5077614;28;20044;-88
2023/07/03 07:08:44;;;;;;;8.75;1.85;;;16.40;99.90;;;;;;5125043;28;20035;-86
2023/07/03 07:11:14;;;;;;;7.35;1.60;;;16.50;99.90;;;;;;5074201;28;20040;-84
2023/07/03 07:13:43;;;;;;;8.40;1.52;;;16.50;99.90;;;;;;5105247;28;20473;-86
2023/07/03 07:16:12;;;;;;;13.10;1.55;;;16.50;99.90;;;;;;5105159;28;20044;-87
2023/07/03 07:18:40;;;;;;;9.05;1.55;;;16.10;99.90;;;;;;5112053;28;20043;-86
2023/07/03 07:21:07;;;;;;;7.05;1.42;;;15.80;99.90;;;;;;5110557;28;20044;-87
2023/07/03 07:23:34;;;;;;;6.22;1.40;;;15.80;99.90;;;;;;5109138;28;20117;-88
2023/07/03 07:26:01;;;;;;;6.93;1.60;;;15.60;99.90;;;;;;5108654;28;20656;-87
2023/07/03 07:28:28;;;;;;;6.32;1.45;;;15.60;99.90;;;;;;5092876;28;20054;-89
2023/07/03 07:30:55;;;;;;;11.23;3.85;;;15.50;99.90;;;;;;5109738;28;20039;-87
2023/07/03 07:33:23;;;;;;;8.73;1.90;;;15.50;99.90;;;;;;5092485;28;20089;-88
2023/07/03 07:35:51;;;;;;;7.13;1.73;;;15.40;99.90;;;;;;5107690;28;20423;-87
2023/07/03 07:38:19;;;;;;;7.97;1.98;;;15.50;99.90;;;;;;5091149;28;20815;-85
2023/07/03 07:40:46;;;;;;;9.27;1.85;;;15.80;99.90;;;;;;5123117;28;20073;-88
2023/07/03 07:43:13;;;;;;;13.70;2.20;;;16.00;99.90;;;;;;5111374;28;20423;-86
2023/07/03 07:45:40;;;;;;;8.73;1.73;;;16.10;99.90;;;;;;5094964;28;20043;-87
2023/07/03 07:48:07;;;;;;;11.10;2.10;;;16.30;99.90;;;;;;5128381;28;20039;-87
2023/07/03 07:50:35;;;;;;;5.93;1.80;;;16.50;99.90;;;;;;5110277;28;20040;-85
2023/07/03 07:53:02;;;;;;;9.02;1.63;;;16.50;99.90;;;;;;5111159;28;20036;-86
2023/07/03 07:55:29;;;;;;;9.18;2.20;;;16.60;99.90;;;;;;5110751;28;20096;-87
2023/07/03 07:57:56;;;;;;;7.15;2.00;;;16.60;99.90;;;;;;5095305;28;20040;-87
2023/07/03 08:00:22;;;;;;;9.57;1.63;;;16.60;99.90;;;;;;5091499;28;20116;-87
2023/07/03 08:02:49;;;;;;;10.25;2.22;;;16.50;99.90;;;;;;5091044;28;20059;-88
2023/07/03 08:05:16;;;;;;;9.00;1.98;;;16.50;99.90;;;;;;5075337;28;20097;-87
2023/07/03 08:07:43;;;;;;;4.97;1.52;;;16.40;99.90;;;;;;5107686;28;20058;-87
2023/07/03 08:10:10;;;;;;;6.80;2.05;;;16.40;99.90;;;;;;5074655;28;20032;-86
2023/07/03 08:12:37;;;;;;;9.57;2.30;;;16.40;99.90;;;;;;5082642;28;20035;-86
2023/07/03 08:15:04;;;;;;;7.85;1.95;;;16.40;99.90;;;;;;5074601;28;20044;-87
2023/07/03 08:17:31;;;;;;;8.00;1.80;;;16.40;99.90;;;;;;5091397;28;20032;-87
2023/07/03 08:19:58;;;;;;;10.65;2.67;;;16.40;99.90;;;;;;5091113;28;20047;-87
2023/07/03 08:22:25;;;;;;;7.82;1.92;;;16.50;99.90;;;;;;5079796;28;20051;-87
2023/07/03 08:24:52;;;;;;;12.55;2.50;;;16.60;99.90;;;;;;5103191;28;20036;-88
2023/07/03 08:27:19;;;;;;;8.07;1.67;;;16.50;99.90;;;;;;5087998;28;20049;-87
2023/07/03 08:29:46;;;;;;;6.68;1.85;;;16.60;99.90;;;;;;5087986;28;20099;-86
2023/07/03 08:32:15;;;;;;;7.18;1.45;;;16.70;99.90;;;;;;5098950;28;20101;-86
2023/07/03 08:34:42;;;;;;;7.53;1.67;;;16.60;99.90;;;;;;5073767;28;20044;-86
2023/07/03 08:37:08;;;;;;;5.72;1.60;;;16.80;99.90;;;;;;5091027;28;20063;-86
2023/07/03 08:39:38;;;;;;;7.85;1.92;;;16.80;99.90;;;;;;5106575;28;20040;-86
2023/07/03 08:42:11;;;;;;;9.43;1.67;;;16.80;99.90;;;;;;5108775;28;20046;-86
2023/07/03 08:44:38;;;;;;;5.63;1.25;;;16.70;99.90;;;;;;5107563;28;20039;-86
2023/07/03 08:47:11;;;;;;;4.90;1.25;;;16.70;99.90;;;;;;5075009;28;20066;-86
2023/07/03 08:49:39;;;;;;;7.78;1.40;;;16.70;99.90;;;;;;5109708;28;20571;-86
2023/07/03 08:52:07;;;;;;;5.95;1.40;;;16.70;99.90;;;;;;5110007;28;20403;-86
2023/07/03 08:54:37;;;;;;;5.32;1.40;;;16.70;99.90;;;;;;5073640;28;20044;-86
2023/07/03 08:57:06;;;;;;;8.25;1.45;;;16.80;99.90;;;;;;5106091;28;20127;-84
2023/07/03 08:59:35;;;;;;;2.63;1.10;;;16.90;99.90;;;;;;5089133;28;20059;-85
2023/07/03 09:02:23;;;;;;;10.65;1.48;;;16.90;99.90;;;;;;5088703;28;20155;-85
2023/07/03 09:05:05;;;;;;;5.75;1.10;;;17.20;99.90;;;;;;5124284;28;20118;-85
2023/07/03 09:07:53;;;;;;;6.63;1.48;;;17.50;99.90;;;;;;5108873;28;20423;-86
2023/07/03 09:10:39;;;;;;;5.07;1.25;;;17.70;99.90;;;;;;5109308;28;20123;-85
2023/07/03 09:13:12;;;;;;;4.00;1.20;;;17.60;99.90;;;;;;5110522;28;20069;-86
2023/07/03 09:16:18;;;;;;;6.65;1.48;;;17.60;99.90;;;;;;5107897;28;20040;-85
2023/07/03 09:19:00;;;;;;;5.95;1.30;;;17.40;99.90;;;;;;5111263;28;20407;-86
2023/07/03 09:21:29;;;;;;;6.28;1.52;;;17.60;99.90;;;;;;5129693;28;20135;-85
2023/07/03 09:24:14;;;;;;;4.88;1.40;;;17.90;99.90;;;;;;5123297;28;20687;-85
2023/07/03 09:26:50;;;;;;;6.35;1.23;;;18.20;99.90;;;;;;5108468;28;20499;-85
2023/07/03 09:29:17;;;;;;;7.40;1.08;;;18.40;99.90;;;;;;5108693;28;20044;-86
2023/07/03 09:31:43;;;;;;;4.85;1.10;;;18.40;99.90;;;;;;5074914;28;20040;-85
2023/07/03 09:34:10;;;;;;;3.45;1.30;;;18.30;99.90;;;;;;5093000;28;20372;-85
2023/07/03 09:36:41;;;;;;;5.53;1.33;;;18.00;99.90;;;;;;5075109;28;20086;-85
2023/07/03 09:39:17;;;;;;;4.63;1.00;;;17.80;99.90;;;;;;5107651;28;20129;-85
2023/07/03 09:41:44;;;;;;;4.90;1.35;;;17.70;99.90;;;;;;5124734;28;20055;-85
2023/07/03 09:44:16;;;;;;;4.68;1.05;;;17.60;99.90;;;;;;5109664;28;20060;-85
2023/07/03 09:46:45;;;;;;;6.28;1.30;;;17.30;99.90;;;;;;5109579;28;20147;-86
2023/07/03 09:49:19;;;;;;;6.65;1.33;;;17.00;99.90;;;;;;5119347;28;20380;-87
2023/07/03 09:51:50;;;;;;;4.75;1.20;;;16.80;99.90;;;;;;5109217;28;20466;-86
2023/07/03 09:54:21;;;;;;;8.60;1.50;;;16.70;99.90;;;;;;5096660;28;20558;-87
2023/07/03 09:56:49;;;;;;;8.55;1.63;;;16.80;99.90;;;;;;5143202;28;20523;-85
2023/07/03 09:59:19;;;;;;;4.65;1.20;;;16.90;99.90;;;;;;5129249;28;20051;-85
2023/07/03 10:01:47;;;;;;;4.72;1.30;;;17.10;99.90;;;;;;5131359;28;20096;-85
2023/07/03 10:04:16;;;;;;;6.50;1.38;;;17.40;99.90;;;;;;5144982;28;20061;-85
2023/07/03 10:06:57;;;;;;;4.65;1.38;;;17.70;99.90;;;;;;5127116;28;20434;-85
2023/07/03 10:09:29;;;;;;;2.58;0.80;;;17.80;99.90;;;;;;5127458;28;20031;-84
2023/07/03 10:11:59;;;;;;;5.25;0.90;;;17.70;99.90;;;;;;5127771;28;20046;-85
2023/07/03 10:14:44;;;;;;;2.35;0.85;;;17.70;99.90;;;;;;5127310;28;20096;-86
2023/07/03 10:17:13;;;;;;;1.97;0.70;;;17.50;99.90;;;;;;5144773;28;20043;-86
2023/07/03 10:19:47;;;;;;;3.72;0.80;;;17.60;99.90;;;;;;5107657;28;20285;-85
2023/07/03 10:22:15;;;;;;;3.30;0.80;;;17.60;99.90;;;;;;5118939;28;20504;-85
2023/07/03 10:24:44;;;;;;;7.28;1.23;;;17.60;99.90;;;;;;5124791;28;20075;-85
2023/07/03 10:27:13;;;;;;;3.33;0.70;;;17.60;99.90;;;;;;5090716;28;20098;-86
2023/07/03 10:29:46;;;;;;;3.10;0.90;;;17.60;99.90;;;;;;5090070;28;20050;-85
2023/07/03 10:32:16;;;;;;;4.80;1.10;;;17.70;99.90;;;;;;5125785;28;20043;-86
2023/07/03 10:35:01;;;;;;;2.50;0.93;;;17.80;99.90;;;;;;5128103;28;20039;-86
2023/07/03 10:37:37;;;;;;;5.20;1.00;;;17.90;99.90;;;;;;5124641;28;20044;-85
2023/07/03 10:40:28;;;;;;;5.20;1.38;;;18.00;99.90;;;;;;5125264;28;20048;-86
2023/07/03 10:42:58;;;;;;;3.15;1.00;;;18.00;99.90;;;;;;5107360;28;20241;-85
2023/07/03 10:45:27;;;;;;;5.80;1.48;;;18.00;99.90;;;;;;5106099;28;20126;-86
2023/07/03 10:48:07;;;;;;;5.35;1.25;;;18.00;99.90;;;;;;5107340;28;20035;-85
2023/07/03 10:50:40;;;;;;;5.28;1.33;;;17.70;99.90;;;;;;5109039;28;20039;-85
2023/07/03 10:53:45;;;;;;;4.47;1.10;;;17.50;99.90;;;;;;5107217;28;20035;-85
2023/07/03 10:56:32;;;;;;;4.32;1.00;;;17.20;99.90;;;;;;5054112;28;20044;-86
2023/07/03 10:59:21;;;;;;;3.63;1.30;;;17.10;99.90;;;;;;5133413;28;20447;-86
2023/07/03 11:01:51;;;;;;;4.30;0.90;;;16.80;99.90;;;;;;5127666;28;20075;-85
2023/07/03 11:04:31;;;;;;;2.38;0.80;;;16.90;99.90;;;;;;5125526;28;20043;-85
2023/07/03 11:07:15;;;;;;;8.95;1.00;;;16.90;99.90;;;;;;5126123;28;20078;-85
2023/07/03 11:10:06;;;;;;;4.13;0.90;;;17.00;99.90;;;;;;5112430;28;20112;-85
2023/07/03 11:12:48;;;;;;;4.53;0.85;;;17.20;99.90;;;;;;5106726;28;20032;-85
2023/07/03 11:15:32;;;;;;;4.78;0.85;;;17.50;99.90;;;;;;5104943;28;20047;-85
2023/07/03 11:18:23;;;;;;;3.78;1.10;;;17.80;99.90;;;;;;5105476;28;20040;-85
2023/07/03 11:21:16;;;;;;;2.15;0.93;;;18.20;99.90;;;;;;5104019;28;20035;-85
2023/07/03 11:24:10;;;;;;;5.30;1.08;;;18.50;99.90;;;;;;5106169;28;20126;-85
2023/07/03 11:26:39;;;;;;;6.07;1.13;;;18.80;99.90;;;;;;5110848;28;20415;-86
2023/07/03 11:29:09;;;;;;;7.47;1.38;;;19.10;99.90;;;;;;5107002;28;20080;-85
2023/07/03 11:31:40;;;;;;;4.70;1.15;;;19.50;99.90;;;;;;5126538;28;20075;-86
2023/07/03 11:34:11;;;;;;;7.43;1.30;;;19.90;99.90;;;;;;5125830;28;20048;-85
2023/07/03 11:36:45;;;;;;;7.00;1.30;;;19.90;99.90;;;;;;5143886;28;20043;-85
2023/07/03 11:39:23;;;;;;;3.85;1.02;;;19.60;99.90;;;;;;5141316;28;20039;-85
2023/07/03 11:42:10;;;;;;;7.80;1.20;;;19.30;99.90;;;;;;5123491;28;20105;-84
2023/07/03 11:45:02;;;;;;;3.65;1.17;;;19.10;99.90;;;;;;5105545;28;20040;-85
2023/07/03 11:47:33;;;;;;;4.30;0.80;;;18.80;99.90;;;;;;5105507;28;20074;-85
2023/07/03 11:50:03;;;;;;;6.00;1.35;;;18.60;99.90;;;;;;5106188;28;20036;-85
2023/07/03 11:52:34;;;;;;;4.13;1.13;;;18.50;99.90;;;;;;5106727;28;20089;-85
2023/07/03 11:55:16;;;;;;;3.83;1.08;;;18.50;99.90;;;;;;5105971;28;20040;-84
2023/07/03 11:57:45;;;;;;;6.43;1.10;;;18.40;99.90;;;;;;5104121;28;20086;-83
2023/07/03 12:00:28;;;;;;;4.05;0.90;;;18.40;99.90;;;;;;5121956;28;20803;-84
2023/07/03 12:03:04;;;;;;;3.78;1.10;;;18.20;99.90;;;;;;5123951;28;20039;-84
2023/07/03 12:05:46;;;;;;;5.40;0.90;;;18.30;99.90;;;;;;5108818;28;20177;-84
2023/07/03 12:08:22;;;;;;;2.88;0.90;;;18.20;99.90;;;;;;5125289;28;20075;-84
2023/07/03 12:10:57;;;;;;;4.72;1.10;;;18.20;99.90;;;;;;5126258;28;20069;-83
2023/07/03 12:13:39;;;;;;;5.45;1.10;;;18.30;99.90;;;;;;5139302;28;20067;-84
2023/07/03 12:16:17;;;;;;;13.95;1.40;;;18.30;99.90;;;;;;5133278;28;20508;-84
2023/07/03 12:18:44;;;;;;;3.08;0.80;;;18.60;99.90;;;;;;5112941;28;20495;-84
2023/07/03 12:21:12;;;;;;;3.78;1.10;;;18.60;99.90;;;;;;5088818;28;20039;-84
2023/07/03 12:23:44;;;;;;;2.45;0.90;;;18.50;99.90;;;;;;5090273;28;20131;-84
2023/07/03 12:26:15;;;;;;;3.22;1.05;;;18.40;99.90;;;;;;5108589;28;20824;-84
2023/07/03 12:28:43;;;;;;;3.08;0.82;;;18.10;99.90;;;;;;5108213;28;20044;-84
2023/07/03 12:31:13;;;;;;;3.50;1.00;;;18.00;99.90;;;;;;5108251;28;20077;-83
2023/07/03 12:33:59;;;;;;;4.45;1.10;;;17.80;99.90;;;;;;5109680;28;20043;-84
2023/07/03 12:36:35;;;;;;;4.07;1.10;;;17.70;99.90;;;;;;5090128;28;20043;-84
2023/07/03 12:39:14;;;;;;;2.25;1.05;;;17.60;99.90;;;;;;5091451;28;20036;-83
2023/07/03 12:41:41;;;;;;;6.22;1.10;;;17.60;99.90;;;;;;5106903;28;20073;-84
2023/07/03 12:44:10;;;;;;;5.60;1.17;;;17.50;99.90;;;;;;5092514;28;20044;-84
2023/07/03 12:46:39;;;;;;;7.53;1.50;;;17.50;99.90;;;;;;5108933;28;20040;-85
2023/07/03 12:49:15;;;;;;;5.55;1.00;;;17.50;99.90;;;;;;5125113;28;20195;-84
2023/07/03 12:51:42;;;;;;;4.47;1.17;;;17.60;99.90;;;;;;5106982;28;20391;-84
2023/07/03 12:54:11;;;;;;;3.30;0.90;;;17.60;99.90;;;;;;5112327;28;20039;-84
2023/07/03 12:56:40;;;;;;;4.95;1.08;;;17.70;99.90;;;;;;5074755;28;20450;-84
2023/07/03 12:59:09;;;;;;;4.95;1.33;;;17.80;99.90;;;;;;5108002;28;20047;-85